createdAt,value
2022-10-13T00:00:50.528Z,7.40
2022-10-13T00:03:17.908Z,7.50
2022-10-13T00:05:47.459Z,7.40
2022-10-13T00:08:16.234Z,7.30
2022-10-13T00:10:43.242Z,7.30
2022-10-13T00:13:09.976Z,7.30
2022-10-13T00:15:41.432Z,7.20
2022-10-13T00:18:08.936Z,7.20
2022-10-13T00:20:40.273Z,7.10
2022-10-13T00:25:53.637Z,7.10
2022-10-13T00:31:22.922Z,7.10
2022-10-13T00:33:49.820Z,7.10
2022-10-13T00:36:16.974Z,7.10
2022-10-13T00:38:43.751Z,7.20
2022-10-13T00:41:10.931Z,7.20
2022-10-13T00:43:55.104Z,7.30
2022-10-13T00:46:23.316Z,7.30
2022-10-13T00:48:51.812Z,7.40
2022-10-13T00:51:22.489Z,7.30
2022-10-13T00:53:50.322Z,7.40
2022-10-13T00:56:19.264Z,7.50
2022-10-13T00:58:47.593Z,7.50
2022-10-13T01:01:14.718Z,7.50
2022-10-13T01:03:41.716Z,7.40
2022-10-13T01:06:09.703Z,7.40
2022-10-13T01:08:36.466Z,7.40
2022-10-13T01:11:08.909Z,7.40
2022-10-13T01:13:50.355Z,7.40
2022-10-13T01:16:24.230Z,7.40
2022-10-13T01:19:11.187Z,7.40
2022-10-13T01:21:55.003Z,7.50
2022-10-13T01:24:46.670Z,7.50
2022-10-13T01:27:51.547Z,7.40
2022-10-13T01:30:22.681Z,7.50
2022-10-13T01:32:55.615Z,7.50
2022-10-13T01:35:34.654Z,7.50
2022-10-13T01:38:24.053Z,7.40
2022-10-13T01:41:02.636Z,7.40
2022-10-13T01:43:35.611Z,7.50
2022-10-13T01:46:23.124Z,7.40
2022-10-13T01:48:53.300Z,7.40
2022-10-13T01:51:22.742Z,7.40
2022-10-13T01:53:50.270Z,7.40
2022-10-13T01:56:18.299Z,7.40
2022-10-13T01:58:45.569Z,7.40
2022-10-13T02:01:29.327Z,7.40
2022-10-13T02:04:31.151Z,7.40
2022-10-13T02:07:03.226Z,7.40
2022-10-13T02:09:56.840Z,7.50
2022-10-13T02:12:41.644Z,7.50
2022-10-13T02:15:12.217Z,7.50
2022-10-13T02:17:41.365Z,7.50
2022-10-13T02:20:09.573Z,7.50
2022-10-13T02:22:42.073Z,7.50
2022-10-13T02:27:59.508Z,7.50
2022-10-13T02:33:16.186Z,7.50
2022-10-13T02:38:30.665Z,7.50
2022-10-13T02:43:44.062Z,7.40
2022-10-13T02:48:57.716Z,7.50
2022-10-13T02:51:24.475Z,7.50
2022-10-13T02:53:51.192Z,7.50
2022-10-13T02:56:17.927Z,7.50
2022-10-13T02:58:44.674Z,7.50
2022-10-13T03:01:13.937Z,7.50
2022-10-13T03:03:41.153Z,7.40
2022-10-13T03:08:55.018Z,7.40
2022-10-13T03:14:08.335Z,7.30
2022-10-13T03:16:35.025Z,7.30
2022-10-13T03:19:01.750Z,7.30
2022-10-13T03:21:28.513Z,7.30
2022-10-13T03:23:55.267Z,7.30
2022-10-13T03:26:22.138Z,7.20
2022-10-13T03:28:50.084Z,7.20
2022-10-13T03:31:17.457Z,7.20
2022-10-13T03:33:44.799Z,7.10
2022-10-13T03:36:12.321Z,7.20
2022-10-13T03:38:39.664Z,7.10
2022-10-13T03:41:14.567Z,7.00
2022-10-13T03:43:42.733Z,7.00
2022-10-13T03:46:12.393Z,7.00
2022-10-13T03:48:39.331Z,6.90
2022-10-13T03:51:08.197Z,7.00
2022-10-13T03:53:35.154Z,7.00
2022-10-13T03:56:02.204Z,6.90
2022-10-13T03:58:29.000Z,6.80
2022-10-13T04:00:56.885Z,6.90
2022-10-13T04:03:23.950Z,6.90
2022-10-13T04:05:50.831Z,6.80
2022-10-13T04:08:17.623Z,6.80
2022-10-13T04:10:44.336Z,6.80
2022-10-13T04:13:11.082Z,6.80
2022-10-13T04:18:26.013Z,6.70
2022-10-13T04:23:39.374Z,6.70
2022-10-13T04:26:06.598Z,6.60
2022-10-13T04:28:34.511Z,6.70
2022-10-13T04:31:02.366Z,6.70
2022-10-13T04:33:29.641Z,6.70
2022-10-13T04:35:56.492Z,6.70
2022-10-13T04:38:23.222Z,6.60
2022-10-13T04:40:49.966Z,6.60
2022-10-13T04:43:17.152Z,6.50
2022-10-13T04:45:43.936Z,6.60
2022-10-13T04:48:10.644Z,6.50
2022-10-13T04:50:37.429Z,6.60
2022-10-13T04:53:04.141Z,6.60
2022-10-13T04:55:30.879Z,6.60
2022-10-13T04:57:57.563Z,6.50
2022-10-13T05:00:24.481Z,6.50
2022-10-13T05:02:51.249Z,6.50
2022-10-13T05:05:18.073Z,6.50
2022-10-13T05:07:44.787Z,6.50
2022-10-13T05:10:11.557Z,6.50
2022-10-13T05:12:38.283Z,6.50
2022-10-13T05:15:05.434Z,6.50
2022-10-13T05:17:35.250Z,6.50
2022-10-13T05:20:02.647Z,6.50
2022-10-13T05:22:29.366Z,6.50
2022-10-13T05:24:56.083Z,6.50
2022-10-13T05:27:22.802Z,6.60
2022-10-13T05:29:49.622Z,6.60
2022-10-13T05:32:16.421Z,6.50
2022-10-13T05:34:43.273Z,6.50
2022-10-13T05:42:57.110Z,6.60
2022-10-13T05:48:10.978Z,6.60
2022-10-13T05:53:27.216Z,6.70
2022-10-13T05:55:56.115Z,6.70
2022-10-13T05:58:24.020Z,6.70
2022-10-13T06:00:51.733Z,6.70
2022-10-13T06:03:22.076Z,6.70
2022-10-13T06:05:48.849Z,6.70
2022-10-13T06:08:16.579Z,6.70
2022-10-13T06:10:43.553Z,6.80
2022-10-13T06:13:10.424Z,6.80
2022-10-13T06:15:37.176Z,6.80
2022-10-13T06:18:08.492Z,6.90
2022-10-13T06:20:35.913Z,6.90
2022-10-13T06:23:02.649Z,7.00
2022-10-13T06:25:29.573Z,7.10
2022-10-13T06:27:59.385Z,7.10
2022-10-13T06:30:26.858Z,7.20
2022-10-13T06:32:54.800Z,7.20
2022-10-13T06:38:09.293Z,7.40
2022-10-13T06:40:36.024Z,7.40
2022-10-13T06:43:02.942Z,7.60
2022-10-13T06:45:29.878Z,7.50
2022-10-13T06:47:56.628Z,7.70
2022-10-13T06:50:23.824Z,7.70
2022-10-13T06:52:50.627Z,7.80
2022-10-13T06:55:17.471Z,7.80
2022-10-13T06:57:44.204Z,7.90
2022-10-13T07:00:11.423Z,8.00
2022-10-13T07:02:38.219Z,8.10
2022-10-13T07:05:05.277Z,8.30
2022-10-13T07:07:32.000Z,8.40
2022-10-13T07:09:58.709Z,8.60
2022-10-13T07:15:12.184Z,9.00
2022-10-13T07:17:38.884Z,9.10
2022-10-13T07:20:07.456Z,9.20
2022-10-13T07:22:34.348Z,9.30
2022-10-13T07:25:01.104Z,10.00
2022-10-13T07:27:28.197Z,10.90
2022-10-13T07:29:54.916Z,11.50
2022-10-13T07:32:21.671Z,11.90
2022-10-13T07:34:51.446Z,12.00
2022-10-13T07:37:18.509Z,12.40
2022-10-13T07:39:45.475Z,11.10
2022-10-13T07:42:12.190Z,10.80
2022-10-13T07:44:38.885Z,10.50
2022-10-13T07:47:05.634Z,10.40
2022-10-13T07:49:32.344Z,10.60
2022-10-13T07:51:59.147Z,10.30
2022-10-13T07:54:27.463Z,10.40
2022-10-13T07:56:56.016Z,10.20
2022-10-13T07:59:22.985Z,10.10
2022-10-13T08:01:49.756Z,10.10
2022-10-13T08:04:16.592Z,10.20
2022-10-13T08:06:43.328Z,10.20
2022-10-13T08:09:10.420Z,10.40
2022-10-13T08:11:37.170Z,10.80
2022-10-13T08:14:03.934Z,11.60
2022-10-13T08:16:32.097Z,11.70
2022-10-13T08:18:59.789Z,12.00
2022-10-13T08:21:56.385Z,12.10
2022-10-13T08:24:17.169Z,11.50
2022-10-13T08:26:45.671Z,11.50
2022-10-13T08:29:22.393Z,11.60
2022-10-13T08:34:36.507Z,11.80
2022-10-13T08:37:03.975Z,11.90
2022-10-13T08:39:30.892Z,12.30
2022-10-13T08:41:57.791Z,12.60
2022-10-13T08:47:28.078Z,12.30
2022-10-13T08:50:01.225Z,12.10
2022-10-13T08:52:42.058Z,11.80
2022-10-13T09:01:25.110Z,12.10
2022-10-13T09:04:06.432Z,12.00
2022-10-13T09:06:39.553Z,12.10
2022-10-13T09:11:55.488Z,12.10
2022-10-13T09:14:32.501Z,12.00
2022-10-13T09:17:23.697Z,11.90
2022-10-13T09:20:19.014Z,12.00
2022-10-13T09:23:00.970Z,12.00
2022-10-13T09:25:27.744Z,12.20
2022-10-13T09:30:47.767Z,12.40
2022-10-13T09:33:22.704Z,12.60
2022-10-13T09:36:07.658Z,12.80
2022-10-13T09:38:34.681Z,13.10
2022-10-13T09:41:10.418Z,13.00
2022-10-13T09:43:40.919Z,13.30
2022-10-13T09:46:19.439Z,13.50
2022-10-13T09:48:51.034Z,13.50
2022-10-13T09:51:40.041Z,13.80
2022-10-13T09:54:26.336Z,14.00
2022-10-13T09:57:12.330Z,13.90
2022-10-13T09:59:45.982Z,14.30
2022-10-13T10:02:33.962Z,14.50
2022-10-13T10:11:09.701Z,14.30
2022-10-13T10:16:41.345Z,14.00
2022-10-13T10:19:28.998Z,14.30
2022-10-13T10:22:14.169Z,13.80
2022-10-13T10:24:55.913Z,13.90
2022-10-13T10:27:41.352Z,13.80
2022-10-13T10:30:17.266Z,14.10
2022-10-13T10:32:49.921Z,13.90
2022-10-13T10:35:28.488Z,14.20
2022-10-13T10:38:04.258Z,14.40
2022-10-13T10:40:40.315Z,14.60
2022-10-13T10:43:25.843Z,14.90
2022-10-13T10:45:56.719Z,14.90
2022-10-13T10:51:15.293Z,15.20
2022-10-13T10:56:39.280Z,15.60
2022-10-13T10:59:11.905Z,15.40
2022-10-13T11:01:42.931Z,15.20
2022-10-13T11:04:39.613Z,15.10
2022-10-13T11:07:24.148Z,15.20
2022-10-13T11:09:53.630Z,15.60
2022-10-13T11:12:20.813Z,15.60
2022-10-13T11:17:42.490Z,16.00
2022-10-13T11:20:35.248Z,15.80
2022-10-13T11:23:05.181Z,16.00
2022-10-13T11:25:49.950Z,15.40
2022-10-13T11:28:22.685Z,16.00
2022-10-13T11:30:54.689Z,16.00
2022-10-13T11:33:39.231Z,16.30
2022-10-13T11:36:43.320Z,16.70
2022-10-13T11:42:46.440Z,16.20
2022-10-13T11:45:16.017Z,16.20
2022-10-13T11:48:29.718Z,16.10
2022-10-13T11:51:16.513Z,16.10
2022-10-13T11:53:58.183Z,15.90
2022-10-13T11:56:39.663Z,16.50
2022-10-13T12:02:19.347Z,16.80
2022-10-13T12:05:01.043Z,17.30
2022-10-13T12:07:33.320Z,17.20
2022-10-13T12:10:00.298Z,17.50
2022-10-13T12:12:27.318Z,17.60
2022-10-13T12:14:57.773Z,17.30
2022-10-13T12:17:27.143Z,17.00
2022-10-13T12:19:59.199Z,17.20
2022-10-13T12:22:26.725Z,17.50
2022-10-13T12:27:51.761Z,17.10
2022-10-13T12:30:29.350Z,17.40
2022-10-13T12:32:58.940Z,17.60
2022-10-13T12:35:31.984Z,17.50
2022-10-13T12:38:05.756Z,17.00
2022-10-13T12:40:33.687Z,17.20
2022-10-13T12:43:01.005Z,17.00
2022-10-13T12:45:32.100Z,17.10
2022-10-13T12:47:58.929Z,17.00
2022-10-13T12:50:25.701Z,16.80
2022-10-13T12:53:02.684Z,17.10
2022-10-13T12:57:56.554Z,17.20
2022-10-13T13:00:26.339Z,17.20
2022-10-13T13:03:01.836Z,17.10
2022-10-13T13:05:40.391Z,17.20
2022-10-13T13:08:25.198Z,17.20
2022-10-13T13:11:02.047Z,17.30
2022-10-13T13:16:22.248Z,17.10
2022-10-13T13:18:52.246Z,17.10
2022-10-13T13:24:16.147Z,17.10
2022-10-13T13:29:39.980Z,17.20
2022-10-13T13:34:53.798Z,17.10
2022-10-13T13:37:31.817Z,17.20
2022-10-13T13:39:59.036Z,16.90
2022-10-13T13:42:28.032Z,16.90
2022-10-13T13:44:54.883Z,16.80
2022-10-13T13:47:24.898Z,16.70
2022-10-13T13:49:53.655Z,16.50
2022-10-13T13:55:09.045Z,16.90
2022-10-13T14:00:02.689Z,16.90
2022-10-13T14:02:29.484Z,16.80
2022-10-13T14:07:42.935Z,16.50
2022-10-13T14:10:10.346Z,16.60
2022-10-13T14:12:37.648Z,16.40
2022-10-13T14:15:04.817Z,16.60
2022-10-13T14:17:31.543Z,16.50
2022-10-13T14:19:58.314Z,16.40
2022-10-13T14:22:25.453Z,16.30
2022-10-13T14:24:52.419Z,16.40
2022-10-13T14:27:19.247Z,16.30
2022-10-13T14:29:46.000Z,16.30
2022-10-13T14:32:12.993Z,16.20
2022-10-13T14:34:39.726Z,16.20
2022-10-13T14:37:06.474Z,16.20
2022-10-13T14:39:33.220Z,16.20
2022-10-13T14:44:46.667Z,16.20
2022-10-13T14:50:00.245Z,15.90
2022-10-13T14:55:14.069Z,15.80
2022-10-13T14:57:40.796Z,15.80
2022-10-13T15:00:08.111Z,15.60
2022-10-13T15:02:34.855Z,15.60
2022-10-13T15:07:48.233Z,15.60
2022-10-13T15:10:15.009Z,15.60
2022-10-13T15:12:41.951Z,15.60
2022-10-13T15:15:09.217Z,15.60
2022-10-13T15:17:36.193Z,15.50
2022-10-13T15:20:03.958Z,15.50
2022-10-13T15:22:30.946Z,15.50
2022-10-13T15:24:57.885Z,15.40
2022-10-13T15:27:24.681Z,15.30
2022-10-13T15:29:51.462Z,15.30
2022-10-13T15:32:19.133Z,15.30
2022-10-13T15:34:46.309Z,15.20
2022-10-13T15:37:13.133Z,15.10
2022-10-13T15:39:39.925Z,15.00
2022-10-13T15:45:10.454Z,15.00
2022-10-13T15:47:38.165Z,14.80
2022-10-13T15:50:05.212Z,14.70
2022-10-13T15:52:35.034Z,14.70
2022-10-13T15:55:02.229Z,14.60
2022-10-13T15:57:31.029Z,14.50
2022-10-13T15:59:57.778Z,14.40
2022-10-13T16:02:24.526Z,14.30
2022-10-13T16:04:51.669Z,14.20
2022-10-13T16:07:18.426Z,14.10
2022-10-13T16:09:45.334Z,14.10
2022-10-13T16:12:12.138Z,14.10
2022-10-13T16:14:38.849Z,14.10
2022-10-13T16:17:05.602Z,14.00
2022-10-13T16:19:32.358Z,13.90
2022-10-13T16:21:59.083Z,13.80
2022-10-13T16:24:25.829Z,13.80
2022-10-13T16:26:52.558Z,13.70
2022-10-13T16:29:19.318Z,13.60
2022-10-13T16:31:46.067Z,13.60
2022-10-13T16:34:12.772Z,13.60
2022-10-13T16:36:39.527Z,13.50
2022-10-13T16:39:06.249Z,13.50
2022-10-13T16:41:32.989Z,13.60
2022-10-13T16:43:59.732Z,13.60
2022-10-13T16:48:53.483Z,13.70
2022-10-13T16:51:22.501Z,13.70
2022-10-13T16:53:54.470Z,13.60
2022-10-13T16:56:22.500Z,13.60
2022-10-13T16:58:58.200Z,13.70
2022-10-13T17:01:25.810Z,13.70
2022-10-13T17:03:52.892Z,13.70
2022-10-13T17:06:21.884Z,13.60
2022-10-13T17:08:48.983Z,13.60
2022-10-13T17:11:20.682Z,13.70
2022-10-13T17:13:47.788Z,13.70
2022-10-13T17:16:15.089Z,13.70
2022-10-13T17:18:41.870Z,13.70
2022-10-13T17:21:11.539Z,13.60
2022-10-13T17:23:38.279Z,13.70
2022-10-13T17:26:10.796Z,13.70
2022-10-13T17:31:25.286Z,13.70
2022-10-13T17:33:53.023Z,13.70
2022-10-13T17:36:27.542Z,13.70
2022-10-13T17:38:56.406Z,13.70
2022-10-13T17:44:11.333Z,13.70
2022-10-13T17:46:39.186Z,13.70
2022-10-13T17:49:09.516Z,13.70
2022-10-13T17:51:36.320Z,13.70
2022-10-13T17:56:30.457Z,13.70
2022-10-13T17:58:57.436Z,13.70
2022-10-13T18:01:27.319Z,13.70
2022-10-13T18:03:57.189Z,13.70
2022-10-13T18:06:24.287Z,13.70
2022-10-13T18:11:39.269Z,13.70
2022-10-13T18:14:06.655Z,13.70
2022-10-13T18:16:34.016Z,13.60
2022-10-13T18:19:00.767Z,13.60
2022-10-13T18:21:27.658Z,13.60
2022-10-13T18:26:42.523Z,13.60
2022-10-13T18:29:11.351Z,13.70
2022-10-13T18:31:39.821Z,13.60
2022-10-13T18:34:10.260Z,13.60
2022-10-13T18:36:39.463Z,13.60
2022-10-13T18:39:10.235Z,13.60
2022-10-13T18:41:38.039Z,13.60
2022-10-13T18:46:33.753Z,13.60
2022-10-13T18:49:00.522Z,13.60
2022-10-13T18:51:29.121Z,13.60
2022-10-13T18:53:59.143Z,13.60
2022-10-13T18:56:28.457Z,13.50
2022-10-13T18:58:59.554Z,13.50
2022-10-13T19:01:29.582Z,13.40
2022-10-13T19:03:56.631Z,13.30
2022-10-13T19:09:14.162Z,13.30
2022-10-13T19:14:28.092Z,13.30
2022-10-13T19:16:58.232Z,13.20
2022-10-13T19:19:28.437Z,13.30
2022-10-13T19:21:55.146Z,13.20
2022-10-13T19:24:21.876Z,13.20
2022-10-13T19:26:48.595Z,13.10
2022-10-13T19:29:15.330Z,13.10
2022-10-13T19:31:43.191Z,13.10
2022-10-13T19:34:11.786Z,13.10
2022-10-13T19:36:41.638Z,13.20
2022-10-13T19:42:02.916Z,13.10
2022-10-13T19:44:29.667Z,13.10
2022-10-13T19:46:56.375Z,13.10
2022-10-13T19:49:24.179Z,13.10
2022-10-13T19:54:37.596Z,13.00
2022-10-13T19:57:04.319Z,13.00
2022-10-13T19:59:31.059Z,12.90
2022-10-13T20:01:57.925Z,12.90
2022-10-13T20:04:24.655Z,12.90
2022-10-13T20:06:52.465Z,13.00
2022-10-13T20:09:19.852Z,12.90
2022-10-13T20:11:49.954Z,12.90
2022-10-13T20:14:16.928Z,12.90
2022-10-13T20:16:43.886Z,13.00
2022-10-13T20:19:13.463Z,13.00
2022-10-13T20:21:40.333Z,13.00
2022-10-13T20:24:07.278Z,13.10
2022-10-13T20:26:34.140Z,13.10
2022-10-13T20:29:00.962Z,13.10
2022-10-13T20:31:27.789Z,13.10
2022-10-13T20:33:56.123Z,13.10
2022-10-13T20:36:24.056Z,13.10
2022-10-13T20:38:51.081Z,13.10
2022-10-13T20:41:23.889Z,13.10
2022-10-13T20:43:52.248Z,13.10
2022-10-13T20:46:19.922Z,13.10
2022-10-13T20:54:22.096Z,13.10
2022-10-13T20:59:35.532Z,13.10
2022-10-13T21:02:02.258Z,12.90
2022-10-13T21:04:29.609Z,12.90
2022-10-13T21:06:56.350Z,13.00
2022-10-13T21:09:23.076Z,12.90
2022-10-13T21:11:49.784Z,12.90
2022-10-13T21:14:16.529Z,12.90
2022-10-13T21:16:43.244Z,12.90
2022-10-13T21:19:10.098Z,12.90
2022-10-13T21:21:36.882Z,12.80
2022-10-13T21:24:06.599Z,12.80
2022-10-13T21:26:34.397Z,12.80
2022-10-13T21:29:02.089Z,12.80
2022-10-13T21:31:29.432Z,12.80
2022-10-13T21:33:56.495Z,12.70
2022-10-13T21:36:29.214Z,12.80
2022-10-13T21:38:58.426Z,12.70
2022-10-13T21:41:25.607Z,12.60
2022-10-13T21:43:52.482Z,12.60
2022-10-13T21:46:22.226Z,12.60
2022-10-13T21:48:49.453Z,12.60
2022-10-13T21:51:17.536Z,12.60
2022-10-13T21:56:35.282Z,12.60
2022-10-13T21:59:02.385Z,12.60
2022-10-13T22:01:29.143Z,12.60
2022-10-13T22:03:58.662Z,12.60
2022-10-13T22:06:26.411Z,12.60
2022-10-13T22:08:55.025Z,12.60
2022-10-13T22:11:24.642Z,12.60
2022-10-13T22:13:52.282Z,12.60
2022-10-13T22:16:24.360Z,12.60
2022-10-13T22:18:55.790Z,12.60
2022-10-13T22:21:25.273Z,12.60
2022-10-13T22:23:55.451Z,12.60
2022-10-13T22:26:22.477Z,12.60
2022-10-13T22:28:49.251Z,12.50
2022-10-13T22:31:15.966Z,12.60
2022-10-13T22:33:43.429Z,12.60
2022-10-13T22:39:04.984Z,12.70
2022-10-13T22:44:20.052Z,12.60
2022-10-13T22:49:33.430Z,12.50
2022-10-13T22:52:00.186Z,12.50
2022-10-13T22:54:26.909Z,12.60
2022-10-13T22:56:53.597Z,12.60
2022-10-13T22:59:20.347Z,12.50
2022-10-13T23:01:47.184Z,12.50
2022-10-13T23:04:13.973Z,12.40
2022-10-13T23:06:40.847Z,12.40
2022-10-13T23:09:11.739Z,12.40
2022-10-13T23:11:38.492Z,12.40
2022-10-13T23:14:05.738Z,12.30
2022-10-13T23:16:32.492Z,12.20
2022-10-13T23:18:59.195Z,12.20
2022-10-13T23:21:28.349Z,12.20
2022-10-13T23:24:00.541Z,12.20
2022-10-13T23:26:28.483Z,12.20
2022-10-13T23:28:56.491Z,12.10
2022-10-13T23:31:24.151Z,12.10
2022-10-13T23:33:50.971Z,12.20
2022-10-13T23:36:20.548Z,12.00
2022-10-13T23:38:47.470Z,12.10
2022-10-13T23:41:15.896Z,12.00
2022-10-13T23:43:43.313Z,12.00
2022-10-13T23:46:10.199Z,12.00
2022-10-13T23:48:37.751Z,11.90
2022-10-13T23:51:16.717Z,11.90
2022-10-13T23:53:44.026Z,11.90
2022-10-13T23:56:12.030Z,11.90
2022-10-13T23:58:40.691Z,11.90
